Garland, TX (75043)

9:10 PM CDT on March 31, 2015 (GMT -0500)
Westshore Estates | | Change Station
CLOSE
Current Station
Personal Weather Station
Location: Garland, TX
Elevation: 439 ft
Nearby Weather Stations

Elev 439 ft 32.89 °N, 96.60 °W | Updated 1 second ago

Partly Cloudy
Partly Cloudy
74.5 °F
Feels Like 77 °F
N
2.0
Wind Variable Wind from South
Gusts 11.0 mph

Today
High -- | Low -- °F
--% Chance of Precip.
Yesterday
High -- | Low -- °F
Precip. -- in
7:15 AM 7:45 PM
Waxing Gibbous, 90% visible
Pressure 29.91 in
Visibility 10.0 miles
Clouds Clear
Heat Index 77 °F
Dew Point 62 °F
Humidity 64%
Rainfall 0.00 in
Snow Depth Not available.
UV 0 out of 12
Pollen 11.60 out of 12
Air Quality Not available.
Flu Activity Not available.
METAR KHQZ 010155Z AUTO 17007KT 10SM CLR 22/15 A2991 RMK AO1 T02160146

More Conditions Fewer Conditions

Pressure 29.91 in
Visibility 10.0 miles
Clouds Clear
Heat Index 77 °F
Dew Point 62 °F
Humidity 64%
Rainfall 0.00 in
Snow Depth Not available.
UV 0 out of 12
Pollen 11.60 out of 12
Air Quality Not available.
Flu Activity Not available.
METAR KHQZ 010155Z AUTO 17007KT 10SM CLR 22/15 A2991 RMK AO1 T02160146

More Conditions Fewer Conditions

Nowcast | as of 9:09 PM CDT on March 31, 2015

Skies were generally partly to mostly clear across much of north central Texas this evening with south to southeast winds of around 10 to 15 mph. A cluster of showers and thunderstorms was noted this evening across western North Texas just to the west of Wichita Falls. This activity is expected to slowly move to the east and southeast and may impact locations across Jack...wise...and Montague counties around or just after midnight. Thunderstorms may result in gusty winds...large hail...heavy rain...and frequent cloud to ground lightning. Otherwise...expect generally quiet conditions...with temperatures in the 70s. Skies should remain partly to mostly clear across most areas.

×

10-Day Weather Forecast

Almanac

Astronomy

Mar. 31, 2015 Rise Set
Actual Time
Civil Twilight
Nautical Twilight
Astronomical Twilight
Moon
Length of Visible Light
Length of Day
Tomorrow will be .
, % of the Moon is Illuminated

Today's Extremes

State Highs State Lows

Community

WunderPhotos

Upload Photos

1,809,867 photos uploaded!

WunderBlogs® & News

Nearby

Air Quality

  Air Quality AQ Index Pollutant
Not available.

Snow Depth

Station Depth Elevation

Earthquake Activity

City Distance Mag. Time & Date
Minimum magnitude displayed is 2.5.

Coastal Water Temperatures

Place Temperature

Stations

Nearby Weather Stations

Station Location Temp. Windchill Dew Point Humidity Wind Precip. Elev Updated Type